Goodland, KS

8:19 PM MDT on September 21, 2014 (GMT -0600)
Renner-Goodland Municipal | Change Station
CLOSE
Current Station
Airport
Location: Goodland,
Elevation: 3655 ft
Nearby Weather Stations

Elev 3655 ft 39.37 °N, 101.69 °W | Updated 26 minutes ago

Partly Cloudy
Partly Cloudy
61 °F
Feels Like 61 °F
N
7
Wind Variable Wind from ESE

Today
High -- | Low -- °F
--% Chance of Precip.
Yesterday
High -- | Low -- °F
Precip. -- in
6:33 AM 6:45 PM
Waning Crescent, 4% visible
Pressure 30.27 in
Visibility 10.0 miles
Clouds Few 12000 ft
Dew Point 44 °F
Humidity 54%
Rainfall 0.00 in
Snow Depth Not available.
UV 0 out of 12
Pollen 6.30 out of 12
Air Quality Not available.
Flu Activity Not available.
METAR KGLD 220153Z AUTO 12006KT 10SM FEW120 16/07 A3032 RMK AO2 SLP248 T01610067

More Conditions Fewer Conditions

Pressure 30.27 in
Visibility 10.0 miles
Clouds Few 12000 ft
Dew Point 44 °F
Humidity 54%
Rainfall 0.00 in
Snow Depth Not available.
UV 0 out of 12
Pollen 6.30 out of 12
Air Quality Not available.
Flu Activity Not available.
METAR KGLD 220153Z AUTO 12006KT 10SM FEW120 16/07 A3032 RMK AO2 SLP248 T01610067

More Conditions Fewer Conditions

10-Day Weather Forecast

Almanac

Astronomy

Sep. 21, 2014 Rise Set
Actual Time 6:33 AM MDT 6:45 PM MDT
Civil Twilight 6:06 AM MDT 7:12 PM MDT
Nautical Twilight 5:35 AM MDT 7:43 PM MDT
Astronomical Twilight 5:03 AM MDT 8:15 PM MDT
Moon 4:09 AM MDT (9/21) 5:22 PM MDT (9/21)
Length of Visible Light 13h 05m
Length of Day
12h 11m
Tomorrow will be 2m 34s shorter.
Waning Crescent, 4% of the Moon is Illuminated
Today
Waning Crescent
Sep 24
New
Oct 1
First Quarter
Oct 8
Full
Oct 15
Last Quarter

Today's Extremes

State Highs State Lows

Community

WunderPhotos

Upload Photos

1,755,347 photos uploaded!

WunderBlogs® & News

Nearby

Snow Depth

Station Depth Elevation
No new snow has been reported.

Earthquake Activity

City Distance Mag. Time & Date
No recent earthquake activity has been reported nearby.
Minimum magnitude displayed is 2.5.

Coastal Water Temperatures

Place Temperature
No Stations Reporting

Nearby Weather Stations